Time;durP1;ratioP1;P1;durP2;ratioP2;P2;SDS_P1;SDS_P2;PMS_P1;PMS_P2;Temp;Humidity;BMP_temperature;BMP_pressure;BME280_temperature;BME280_humidity;BME280_pressure;Samples;Min_cycle;Max_cycle;Signal;HPM_P1;HPM_P2
2022/07/18 00:09:17;;;;;;;3.65;1.80;;;19.20;99.90;;;;;;6649671;89;20200;-79
2022/07/18 00:19:18;;;;;;;4.87;1.77;;;18.90;99.90;;;;;;6649823;89;20208;-78
2022/07/18 00:29:18;;;;;;;4.90;1.50;;;18.60;99.90;;;;;;6648681;89;20259;-77
2022/07/18 00:39:19;;;;;;;2.55;1.40;;;18.30;99.90;;;;;;6650732;89;20594;-78
2022/07/18 00:49:20;;;;;;;3.30;1.42;;;18.50;99.90;;;;;;6662210;89;20733;-78
2022/07/18 00:59:20;;;;;;;6.60;1.70;;;18.10;99.90;;;;;;6654036;89;20214;-78
2022/07/18 01:09:21;;;;;;;3.75;1.40;;;18.00;99.90;;;;;;6664252;89;20719;-79
2022/07/18 01:19:22;;;;;;;5.67;1.67;;;17.80;99.90;;;;;;6650243;89;20214;-76
2022/07/18 01:29:22;;;;;;;3.60;1.35;;;17.50;99.90;;;;;;6650528;89;20953;-78
2022/07/18 01:49:28;;;;;;;5.97;1.77;;;17.40;99.90;;;;;;6672487;89;20226;-78
2022/07/18 01:59:29;;;;;;;7.70;1.60;;;17.40;99.90;;;;;;6671656;89;20229;-79
2022/07/18 02:09:29;;;;;;;3.10;1.70;;;17.20;99.90;;;;;;6672132;89;20583;-80
2022/07/18 02:19:30;;;;;;;3.30;1.70;;;17.00;99.90;;;;;;6671644;89;20231;-78
2022/07/18 02:29:30;;;;;;;5.68;1.60;;;17.00;99.90;;;;;;6671322;89;20206;-78
2022/07/18 02:39:31;;;;;;;4.68;1.98;;;16.90;99.90;;;;;;6673388;89;20215;-79
2022/07/18 02:49:32;;;;;;;3.97;1.62;;;16.80;99.90;;;;;;6673755;89;20190;-79
2022/07/18 02:59:33;;;;;;;3.03;1.60;;;16.60;99.90;;;;;;6673906;89;20183;-79
2022/07/18 03:09:33;;;;;;;4.15;1.60;;;16.40;99.90;;;;;;6672407;89;20722;-77
2022/07/18 03:19:35;;;;;;;4.28;1.60;;;16.50;99.90;;;;;;6671887;89;20258;-77
2022/07/18 03:29:35;;;;;;;3.10;1.37;;;16.40;99.90;;;;;;6672071;89;20183;-77
2022/07/18 03:39:36;;;;;;;4.47;1.52;;;16.50;99.90;;;;;;6672614;89;20630;-78
2022/07/18 03:49:36;;;;;;;4.00;1.62;;;16.30;99.90;;;;;;6680948;89;20211;-78
2022/07/18 03:59:37;;;;;;;3.25;1.70;;;16.60;99.90;;;;;;6672105;89;20226;-78
2022/07/18 04:09:37;;;;;;;3.35;1.73;;;16.20;99.90;;;;;;6672242;89;20684;-78
2022/07/18 04:19:38;;;;;;;3.92;1.90;;;16.10;99.90;;;;;;6672930;89;20636;-79
2022/07/18 04:29:38;;;;;;;3.97;1.87;;;16.00;99.90;;;;;;6673046;89;20308;-79
2022/07/18 04:39:39;;;;;;;4.80;1.95;;;16.00;99.90;;;;;;6672753;89;20208;-78
2022/07/18 04:49:39;;;;;;;5.00;1.73;;;15.80;99.90;;;;;;6672648;89;20271;-78
2022/07/18 04:59:44;;;;;;;5.55;2.17;;;16.00;99.90;;;;;;6672727;89;20559;-78
2022/07/18 05:09:45;;;;;;;4.20;1.77;;;16.20;99.90;;;;;;6672470;89;20612;-79
2022/07/18 05:19:45;;;;;;;6.68;2.12;;;16.40;99.90;;;;;;6672500;89;20204;-79
2022/07/18 05:29:46;;;;;;;3.42;1.80;;;16.80;99.90;;;;;;6675219;89;20207;-79
2022/07/18 05:39:47;;;;;;;5.35;1.75;;;16.80;99.90;;;;;;6661143;89;20669;-79
2022/07/18 05:49:47;;;;;;;4.80;1.70;;;17.20;99.90;;;;;;6655151;89;20725;-78
2022/07/18 05:59:48;;;;;;;4.22;1.62;;;17.80;99.90;;;;;;6654634;89;20243;-79
2022/07/18 06:09:48;;;;;;;5.50;1.42;;;18.40;99.90;;;;;;6657394;89;20335;-79
2022/07/18 06:19:49;;;;;;;3.78;1.60;;;19.30;99.90;;;;;;6657929;89;20313;-79
2022/07/18 06:29:49;;;;;;;5.07;1.67;;;20.10;99.90;;;;;;6657984;89;20211;-79
2022/07/18 06:39:50;;;;;;;2.47;1.40;;;20.70;99.90;;;;;;6658103;89;20571;-79
2022/07/18 06:49:50;;;;;;;3.47;1.20;;;21.40;95.60;;;;;;6657960;89;20197;-79
2022/07/18 06:59:51;;;;;;;7.37;1.20;;;21.80;93.30;;;;;;6657870;89;20219;-79
2022/07/18 07:09:51;;;;;;;2.30;1.17;;;22.40;90.60;;;;;;6657978;89;20596;-79
2022/07/18 07:19:52;;;;;;;4.07;1.17;;;23.00;86.30;;;;;;6658546;89;20304;-80
2022/07/18 07:29:52;;;;;;;4.15;1.17;;;23.60;83.90;;;;;;6681367;89;20190;-79
2022/07/18 07:49:58;;;;;;;3.40;1.00;;;24.60;79.20;;;;;;6671464;89;20724;-79
2022/07/18 07:59:58;;;;;;;2.50;1.10;;;24.90;77.50;;;;;;6655116;89;20535;-79
2022/07/18 08:09:59;;;;;;;2.92;1.20;;;25.10;76.80;;;;;;6653141;89;20947;-79
2022/07/18 08:19:59;;;;;;;3.55;1.08;;;26.20;75.90;;;;;;6650537;89;20790;-78
2022/07/18 08:30:00;;;;;;;3.50;0.98;;;26.90;75.10;;;;;;6650025;89;20216;-77
2022/07/18 08:40:01;;;;;;;2.65;1.02;;;27.10;73.10;;;;;;6650140;89;20199;-79
2022/07/18 08:50:02;;;;;;;4.28;1.20;;;27.50;72.00;;;;;;6650371;89;20435;-78
2022/07/18 09:00:06;;;;;;;3.42;1.17;;;27.70;70.60;;;;;;6650632;89;20212;-78
2022/07/18 09:10:07;;;;;;;2.33;1.00;;;28.60;71.20;;;;;;6646125;89;20633;-79
2022/07/18 09:20:15;;;;;;;2.45;1.10;;;29.60;69.50;;;;;;6649614;89;20249;-79
2022/07/18 09:30:25;;;;;;;2.60;0.90;;;30.40;65.70;;;;;;6652982;89;20213;-78
2022/07/18 09:40:35;;;;;;;3.00;1.10;;;30.40;64.20;;;;;;6653422;89;20387;-79
2022/07/18 09:51:00;;;;;;;2.72;1.02;;;30.40;63.80;;;;;;6656414;89;20235;-78
2022/07/18 10:01:03;;;;;;;5.00;1.20;;;31.80;61.80;;;;;;6652367;89;20213;-78
2022/07/18 10:11:06;;;;;;;4.20;1.23;;;32.70;58.80;;;;;;6653272;89;20238;-78
2022/07/18 10:21:15;;;;;;;4.18;1.23;;;32.10;57.40;;;;;;6657043;89;20248;-79
2022/07/18 10:31:16;;;;;;;1.75;1.10;;;32.70;55.90;;;;;;6654403;89;20250;-78
2022/07/18 10:41:17;;;;;;;9.17;1.50;;;32.70;54.90;;;;;;6651787;89;20239;-78
2022/07/18 10:51:18;;;;;;;;;;;32.70;55.20;;;;;;6652794;89;20211;-79
2022/07/18 11:01:19;;;;;;;4.47;1.23;;;34.50;52.70;;;;;;6651099;89;20146;-78
2022/07/18 11:11:20;;;;;;;3.50;1.30;;;34.90;52.80;;;;;;6651068;89;20619;-78
2022/07/18 11:21:22;;;;;;;2.60;1.20;;;35.50;51.00;;;;;;6650694;89;20226;-79
2022/07/18 11:31:23;;;;;;;3.40;1.25;;;35.50;52.60;;;;;;6648303;89;20233;-79
2022/07/18 11:41:24;;;;;;;5.72;1.50;;;36.00;50.50;;;;;;6646804;89;20196;-77
2022/07/18 11:51:24;;;;;;;2.80;1.20;;;37.60;49.70;;;;;;6650698;89;20620;-78
2022/07/18 12:01:34;;;;;;;3.80;1.55;;;38.20;48.90;;;;;;6654587;89;20187;-78
2022/07/18 12:11:36;;;;;;;3.15;1.23;;;36.80;50.30;;;;;;6658448;89;20204;-80
2022/07/18 12:21:55;;;;;;;4.07;1.98;;;38.40;49.10;;;;;;6652625;89;20794;-79
2022/07/18 12:31:56;;;;;;;3.23;1.50;;;38.50;49.60;;;;;;6652690;89;20187;-80
2022/07/18 12:41:58;;;;;;;4.57;1.50;;;39.00;47.90;;;;;;6651652;89;20943;-80
2022/07/18 12:51:59;;;;;;;2.85;1.20;;;38.00;48.20;;;;;;6653221;88;20192;-80
2022/07/18 13:01:59;;;;;;;5.32;1.42;;;39.10;49.00;;;;;;6685298;88;20206;-79
2022/07/18 13:12:00;;;;;;;3.95;1.40;;;39.70;48.30;;;;;;6681732;88;20570;-79
2022/07/18 13:22:01;;;;;;;3.72;1.23;;;40.20;47.50;;;;;;6685073;88;20353;-79
2022/07/18 13:32:03;;;;;;;5.32;1.45;;;40.20;47.20;;;;;;6684834;89;20303;-79
2022/07/18 13:52:07;;;;;;;5.72;1.40;;;40.20;46.80;;;;;;6650816;89;20204;-78
2022/07/18 14:02:07;;;;;;;6.03;2.40;;;40.10;46.90;;;;;;6652226;89;20253;-79
2022/07/18 14:12:08;;;;;;;3.13;1.40;;;40.20;47.40;;;;;;6651736;89;20209;-79
2022/07/18 14:22:09;;;;;;;3.42;1.40;;;39.10;47.10;;;;;;6650032;89;20185;-79
2022/07/18 14:32:10;;;;;;;4.85;1.60;;;40.20;46.50;;;;;;6644560;89;20205;-78
2022/07/18 14:42:12;;;;;;;3.20;1.40;;;40.20;45.90;;;;;;6654227;89;20200;-79
2022/07/18 14:52:13;;;;;;;3.42;1.55;;;40.00;47.50;;;;;;6654465;89;20180;-79
2022/07/18 15:02:14;;;;;;;3.97;1.48;;;39.70;46.60;;;;;;6650113;89;20647;-79
2022/07/18 15:12:15;;;;;;;4.10;1.37;;;40.30;46.80;;;;;;6653530;89;20179;-79
2022/07/18 15:22:15;;;;;;;3.37;1.42;;;40.30;46.30;;;;;;6654173;89;20707;-79
2022/07/18 15:32:16;;;;;;;6.40;1.40;;;40.30;45.80;;;;;;6650755;89;20690;-78
2022/07/18 15:42:16;;;;;;;3.25;1.40;;;40.20;46.40;;;;;;6652990;89;20199;-79
2022/07/18 15:52:17;;;;;;;4.00;1.40;;;39.80;46.30;;;;;;6653531;89;20679;-79
2022/07/18 16:02:17;;;;;;;4.00;1.50;;;38.50;47.00;;;;;;6653271;89;20344;-79
2022/07/18 16:12:18;;;;;;;4.45;2.20;;;39.00;46.30;;;;;;6650302;89;20671;-78
2022/07/18 16:22:18;;;;;;;4.78;1.52;;;39.50;46.90;;;;;;6652667;89;20203;-79
2022/07/18 16:32:19;;;;;;;5.62;1.60;;;40.00;45.90;;;;;;6654797;89;20191;-79
2022/07/18 16:42:20;;;;;;;5.15;1.65;;;40.00;45.80;;;;;;6653386;89;20614;-78
2022/07/18 16:52:21;;;;;;;2.87;1.67;;;38.20;46.50;;;;;;6653265;89;20215;-79
2022/07/18 17:02:22;;;;;;;6.10;1.60;;;37.10;47.90;;;;;;6652449;89;20985;-79
2022/07/18 17:12:23;;;;;;;4.18;1.60;;;37.80;46.80;;;;;;6636163;89;20731;-79
2022/07/18 17:22:25;;;;;;;3.55;1.50;;;38.10;46.60;;;;;;6635943;89;20309;-79
2022/07/18 17:32:26;;;;;;;3.37;1.40;;;37.90;47.20;;;;;;6636472;89;20215;-79
2022/07/18 17:42:26;;;;;;;5.62;1.90;;;38.80;46.80;;;;;;6635604;89;20260;-78
2022/07/18 17:52:27;;;;;;;3.42;1.70;;;39.50;46.30;;;;;;6635773;89;20337;-78
2022/07/18 18:02:27;;;;;;;;;;;39.20;47.10;;;;;;6637530;89;20360;-78
2022/07/18 18:12:28;;;;;;;2.78;1.50;;;38.10;47.60;;;;;;6647744;89;20189;-78
2022/07/18 18:22:29;;;;;;;3.95;1.70;;;37.80;48.00;;;;;;6638983;89;20738;-80
2022/07/18 18:32:29;;;;;;;3.15;1.60;;;36.70;49.10;;;;;;6637967;89;20204;-80
2022/07/18 18:42:30;;;;;;;5.28;1.50;;;37.00;48.90;;;;;;6641485;89;20572;-80
2022/07/18 18:52:31;;;;;;;6.27;2.00;;;35.90;49.60;;;;;;6637750;89;20196;-80
2022/07/18 19:02:31;;;;;;;4.13;2.40;;;34.70;51.10;;;;;;6638698;89;20595;-79
2022/07/18 19:12:32;;;;;;;3.78;2.10;;;33.60;53.10;;;;;;6638547;89;20656;-80
2022/07/18 19:22:32;;;;;;;7.63;3.47;;;32.90;55.10;;;;;;6641720;89;20232;-81
2022/07/18 19:32:33;;;;;;;8.70;3.62;;;32.00;56.00;;;;;;6644837;89;20197;-79
2022/07/18 19:52:37;;;;;;;6.43;2.40;;;30.30;59.80;;;;;;6686605;88;20211;-79
2022/07/18 20:02:38;;;;;;;4.72;1.98;;;29.90;60.30;;;;;;6689134;88;20206;-79
2022/07/18 20:12:38;;;;;;;6.95;2.35;;;29.50;60.40;;;;;;6682618;88;21225;-79
2022/07/18 20:22:39;;;;;;;5.60;2.63;;;28.90;61.80;;;;;;6680900;88;20623;-79
2022/07/18 20:32:41;;;;;;;5.60;2.05;;;28.50;62.30;;;;;;6691230;88;20759;-79
2022/07/18 20:42:42;;;;;;;6.53;2.40;;;28.30;64.10;;;;;;6679461;88;20783;-79
2022/07/18 20:52:43;;;;;;;4.70;2.10;;;27.70;65.80;;;;;;6683681;88;20215;-80
2022/07/18 21:02:44;;;;;;;3.83;2.33;;;27.20;65.70;;;;;;6685248;88;20236;-78
2022/07/18 21:12:44;;;;;;;5.03;2.28;;;26.70;67.30;;;;;;6683295;88;20199;-79
2022/07/18 21:22:48;;;;;;;5.93;2.12;;;26.80;67.60;;;;;;6691111;88;20691;-79
2022/07/18 21:32:51;;;;;;;4.15;2.25;;;26.30;68.60;;;;;;6688388;88;20223;-80
2022/07/18 21:42:51;;;;;;;3.83;2.50;;;25.90;70.00;;;;;;6692755;88;20211;-80
2022/07/18 21:52:52;;;;;;;4.85;2.50;;;25.50;70.90;;;;;;6689874;88;20635;-80
2022/07/18 22:02:52;;;;;;;5.53;2.37;;;25.50;71.00;;;;;;6694322;88;20203;-82
2022/07/18 22:12:53;;;;;;;4.32;2.22;;;25.20;71.60;;;;;;6701751;88;20240;-80
2022/07/18 22:22:53;;;;;;;4.07;2.40;;;25.00;72.30;;;;;;6687749;88;20725;-80
2022/07/18 22:32:54;;;;;;;3.42;2.30;;;24.70;73.00;;;;;;6688393;88;20249;-80
2022/07/18 22:42:55;;;;;;;5.30;2.60;;;24.30;75.00;;;;;;6693717;88;20377;-81
2022/07/18 22:52:55;;;;;;;5.15;2.42;;;24.10;76.10;;;;;;6681603;88;20221;-79
2022/07/18 23:02:56;;;;;;;10.32;2.47;;;23.90;77.00;;;;;;6687323;88;20257;-79
2022/07/18 23:12:57;;;;;;;5.40;2.75;;;23.70;78.10;;;;;;6690054;88;20568;-79
2022/07/18 23:22:58;;;;;;;7.18;2.45;;;24.10;77.30;;;;;;6684932;88;20272;-80
2022/07/18 23:32:59;;;;;;;4.20;2.00;;;23.40;80.00;;;;;;6680107;88;20772;-80
2022/07/18 23:42:59;;;;;;;5.45;2.25;;;23.20;81.50;;;;;;6698356;88;20178;-78
2022/07/18 23:53:01;;;;;;;3.97;2.33;;;22.90;85.40;;;;;;6681404;89;20201;-80
